createdAt,value
2022-09-16T00:00:29.886Z,100155.38
2022-09-16T00:02:57.239Z,100147.44
2022-09-16T00:05:24.538Z,100156.41
2022-09-16T00:07:51.256Z,100151.97
2022-09-16T00:10:18.202Z,100145.88
2022-09-16T00:12:44.948Z,100148.56
2022-09-16T00:15:11.807Z,100149.56
2022-09-16T00:17:38.524Z,100152.25
2022-09-16T00:20:07.269Z,100150.59
2022-09-16T00:22:34.365Z,100151.50
2022-09-16T00:25:01.090Z,100155.97
2022-09-16T00:27:27.955Z,100156.06
2022-09-16T00:29:54.698Z,100149.84
2022-09-16T00:32:21.458Z,100147.22
2022-09-16T00:34:48.895Z,100150.88
2022-09-16T00:37:15.638Z,100148.19
2022-09-16T00:39:42.508Z,100147.31
2022-09-16T00:42:12.284Z,100156.25
2022-09-16T00:44:57.822Z,100156.25
2022-09-16T00:47:31.738Z,100158.09
2022-09-16T00:50:08.331Z,100150.13
2022-09-16T00:52:35.722Z,100158.16
2022-09-16T00:55:07.362Z,100163.50
2022-09-16T00:57:34.612Z,100161.78
2022-09-16T01:00:01.943Z,100163.50
2022-09-16T01:02:28.730Z,100159.94
2022-09-16T01:05:08.426Z,100168.78
2022-09-16T01:07:45.642Z,100158.09
2022-09-16T01:10:13.838Z,100154.50
2022-09-16T01:12:43.008Z,100158.91
2022-09-16T01:15:10.846Z,100154.50
2022-09-16T01:17:43.800Z,100158.00
2022-09-16T01:20:32.179Z,100153.53
2022-09-16T01:23:14.374Z,100154.41
2022-09-16T01:26:12.527Z,100152.56
2022-09-16T01:29:02.003Z,100150.72
2022-09-16T01:31:43.252Z,100157.81
2022-09-16T01:34:47.507Z,100155.97
2022-09-16T01:37:31.006Z,100153.25
2022-09-16T01:40:12.711Z,100151.38
2022-09-16T01:42:57.889Z,100152.25
2022-09-16T01:45:36.443Z,100150.44
2022-09-16T01:48:20.274Z,100148.69
2022-09-16T01:51:19.177Z,100153.09
2022-09-16T01:53:51.142Z,100148.69
2022-09-16T01:56:22.249Z,100143.34
2022-09-16T01:58:55.096Z,100156.81
2022-09-16T02:01:26.509Z,100150.63
2022-09-16T02:03:59.233Z,100147.94
2022-09-16T02:06:27.654Z,100150.63
2022-09-16T02:08:57.942Z,100149.75
2022-09-16T02:11:25.398Z,100148.91
2022-09-16T02:13:55.673Z,100144.41
2022-09-16T02:16:56.423Z,100145.38
2022-09-16T02:19:26.887Z,100143.63
2022-09-16T02:21:55.538Z,100137.41
2022-09-16T02:24:22.709Z,100138.28
2022-09-16T02:30:36.774Z,100133.94
2022-09-16T02:33:07.448Z,100138.38
2022-09-16T02:35:36.910Z,100135.72
2022-09-16T02:38:29.284Z,100129.47
2022-09-16T02:40:57.517Z,100135.72
2022-09-16T02:43:24.473Z,100137.50
2022-09-16T02:46:02.630Z,100128.63
2022-09-16T02:49:05.929Z,100140.19
2022-09-16T02:51:37.339Z,100133.16
2022-09-16T02:54:20.374Z,100126.00
2022-09-16T02:56:47.366Z,100134.00
2022-09-16T02:59:15.119Z,100145.56
2022-09-16T03:01:44.528Z,100139.31
2022-09-16T03:04:14.241Z,100133.97
2022-09-16T03:06:41.132Z,100141.97
2022-09-16T03:09:12.849Z,100145.47
2022-09-16T03:12:01.636Z,100136.53
2022-09-16T03:14:33.052Z,100141.03
2022-09-16T03:17:11.914Z,100133.84
2022-09-16T03:19:49.493Z,100133.94
2022-09-16T03:22:23.607Z,100134.81
2022-09-16T03:25:12.978Z,100138.44
2022-09-16T03:27:46.837Z,100136.75
2022-09-16T03:30:13.659Z,100145.63
2022-09-16T03:32:49.540Z,100139.41
2022-09-16T03:35:38.540Z,100134.94
2022-09-16T03:38:06.562Z,100137.63
2022-09-16T03:40:34.018Z,100134.00
2022-09-16T03:43:01.017Z,100134.88
2022-09-16T03:45:27.748Z,100139.34
2022-09-16T03:47:54.509Z,100130.47
2022-09-16T03:50:21.579Z,100126.00
2022-09-16T03:52:48.317Z,100132.19
2022-09-16T03:55:16.785Z,100121.59
2022-09-16T03:57:43.556Z,100126.06
2022-09-16T04:00:11.312Z,100127.84
2022-09-16T04:02:38.129Z,100125.22
2022-09-16T04:05:05.173Z,100119.00
2022-09-16T04:07:33.441Z,100119.94
2022-09-16T04:10:00.305Z,100108.38
2022-09-16T04:12:27.011Z,100122.66
2022-09-16T04:14:53.844Z,100117.31
2022-09-16T04:17:20.538Z,100120.91
2022-09-16T04:19:47.266Z,100115.56
2022-09-16T04:22:13.976Z,100114.75
2022-09-16T04:24:41.093Z,100113.78
2022-09-16T04:27:07.802Z,100104.06
2022-09-16T04:29:34.515Z,100103.19
2022-09-16T04:32:01.285Z,100109.41
2022-09-16T04:34:27.984Z,100104.13
2022-09-16T04:36:54.682Z,100091.78
2022-09-16T04:39:21.428Z,100099.81
2022-09-16T04:41:48.218Z,100109.63
2022-09-16T04:44:15.269Z,100114.06
2022-09-16T04:46:42.058Z,100111.47
2022-09-16T04:49:08.822Z,100102.56
2022-09-16T04:51:35.548Z,100112.34
2022-09-16T04:54:02.267Z,100119.41
2022-09-16T04:56:31.393Z,100119.41
2022-09-16T04:59:04.417Z,100119.41
2022-09-16T05:01:33.141Z,100112.34
2022-09-16T05:04:02.728Z,100111.47
2022-09-16T05:06:32.389Z,100109.69
2022-09-16T05:09:00.953Z,100110.59
2022-09-16T05:11:29.701Z,100105.22
2022-09-16T05:14:01.410Z,100109.69
2022-09-16T05:16:28.570Z,100112.34
2022-09-16T05:18:57.113Z,100117.69
2022-09-16T05:21:25.184Z,100115.03
2022-09-16T05:23:52.120Z,100119.41
2022-09-16T05:26:21.001Z,100119.41
2022-09-16T05:28:48.177Z,100122.09
2022-09-16T05:31:25.560Z,100117.69
2022-09-16T05:34:06.552Z,100116.75
2022-09-16T05:36:35.252Z,100107.91
2022-09-16T05:39:22.014Z,100112.34
2022-09-16T05:41:49.659Z,100114.28
2022-09-16T05:44:16.421Z,100103.69
2022-09-16T05:46:43.825Z,100100.19
2022-09-16T05:49:11.233Z,100116.22
2022-09-16T05:51:39.267Z,100106.44
2022-09-16T05:54:06.164Z,100115.34
2022-09-16T05:56:32.960Z,100111.69
2022-09-16T05:59:00.639Z,100110.69
2022-09-16T06:01:31.471Z,100120.28
2022-09-16T06:04:00.980Z,100113.94
2022-09-16T06:06:29.818Z,100118.22
2022-09-16T06:08:58.568Z,100119.00
2022-09-16T06:11:26.965Z,100113.50
2022-09-16T06:14:00.124Z,100107.25
2022-09-16T06:16:27.992Z,100103.69
2022-09-16T06:18:55.342Z,100103.69
2022-09-16T06:21:22.109Z,100109.81
2022-09-16T06:23:49.117Z,100108.00
2022-09-16T06:26:18.369Z,100113.16
2022-09-16T06:28:45.786Z,100110.25
2022-09-16T06:31:17.605Z,100115.47
2022-09-16T06:33:44.607Z,100116.16
2022-09-16T06:36:14.241Z,100116.66
2022-09-16T06:38:41.150Z,100118.72
2022-09-16T06:41:09.297Z,100106.69
2022-09-16T06:43:37.081Z,100099.38
2022-09-16T06:46:18.397Z,100110.00
2022-09-16T06:48:46.989Z,100107.44
2022-09-16T06:51:16.405Z,100117.38
2022-09-16T06:53:44.110Z,100112.06
2022-09-16T06:56:13.684Z,100110.16
2022-09-16T06:58:43.580Z,100108.31
2022-09-16T07:01:14.209Z,100108.22
2022-09-16T07:03:42.830Z,100101.97
2022-09-16T07:06:10.650Z,100114.34
2022-09-16T07:08:38.624Z,100108.88
2022-09-16T07:11:06.362Z,100108.88
2022-09-16T07:13:33.569Z,100105.16
2022-09-16T07:16:13.621Z,100110.34
2022-09-16T07:18:41.064Z,100108.44
2022-09-16T07:21:13.781Z,100108.13
2022-09-16T07:23:41.052Z,100112.63
2022-09-16T07:26:11.068Z,100110.88
2022-09-16T07:28:40.323Z,100107.84
2022-09-16T07:31:09.407Z,100111.63
2022-09-16T07:33:38.239Z,100107.28
2022-09-16T07:36:05.739Z,100103.91
2022-09-16T07:38:32.824Z,100103.59
2022-09-16T07:41:14.549Z,100107.69
2022-09-16T07:43:42.138Z,100111.41
2022-09-16T07:46:10.729Z,100111.63
2022-09-16T07:48:38.084Z,100113.13
2022-09-16T07:51:11.021Z,100105.03
2022-09-16T07:53:38.662Z,100106.88
2022-09-16T07:56:16.957Z,100106.22
2022-09-16T07:58:45.345Z,100110.13
2022-09-16T08:01:13.197Z,100113.81
2022-09-16T08:03:40.578Z,100111.00
2022-09-16T08:06:18.363Z,100116.56
2022-09-16T08:08:45.255Z,100111.03
2022-09-16T08:11:14.246Z,100109.91
2022-09-16T08:13:42.343Z,100113.97
2022-09-16T08:16:13.288Z,100110.75
2022-09-16T08:18:40.768Z,100116.44
2022-09-16T08:21:08.908Z,100114.88
2022-09-16T08:23:36.913Z,100118.00
2022-09-16T08:26:04.472Z,100122.06
2022-09-16T08:28:40.049Z,100116.34
2022-09-16T08:31:12.720Z,100117.72
2022-09-16T08:33:40.587Z,100119.06
2022-09-16T08:36:12.197Z,100113.22
2022-09-16T08:38:38.904Z,100116.81
2022-09-16T08:41:31.983Z,100115.13
2022-09-16T08:44:27.857Z,100109.06
2022-09-16T08:47:02.709Z,100107.50
2022-09-16T08:49:34.303Z,100104.22
2022-09-16T08:52:04.401Z,100110.69
2022-09-16T08:54:53.271Z,100109.94
2022-09-16T08:57:26.970Z,100120.28
2022-09-16T09:00:05.727Z,100108.16
2022-09-16T09:02:47.711Z,100119.97
2022-09-16T09:05:43.004Z,100118.38
2022-09-16T09:08:34.676Z,100120.38
2022-09-16T09:11:23.298Z,100128.50
2022-09-16T09:13:55.573Z,100126.56
2022-09-16T09:16:34.770Z,100126.28
2022-09-16T09:19:08.859Z,100118.88
2022-09-16T09:22:04.192Z,100115.13
2022-09-16T09:24:57.075Z,100115.50
2022-09-16T09:27:31.825Z,100112.25
2022-09-16T09:30:20.304Z,100117.25
2022-09-16T09:33:44.762Z,100109.81
2022-09-16T09:36:36.506Z,100114.25
2022-09-16T09:39:17.337Z,100100.88
2022-09-16T09:41:51.262Z,100111.75
2022-09-16T09:44:33.216Z,100105.50
2022-09-16T09:47:04.560Z,100101.13
2022-09-16T09:49:37.590Z,100097.56
2022-09-16T09:52:04.204Z,100099.41
2022-09-16T09:54:35.520Z,100098.66
2022-09-16T09:57:22.289Z,100095.31
2022-09-16T10:00:10.689Z,100095.63
2022-09-16T10:02:40.690Z,100094.03
2022-09-16T10:05:18.705Z,100089.88
2022-09-16T10:07:45.751Z,100084.59
2022-09-16T10:10:16.342Z,100094.44
2022-09-16T10:12:43.197Z,100102.88
2022-09-16T10:15:28.852Z,100092.09
2022-09-16T10:17:58.822Z,100090.06
2022-09-16T10:20:33.305Z,100078.78
2022-09-16T10:23:02.019Z,100096.91
2022-09-16T10:25:30.659Z,100098.75
2022-09-16T10:28:00.829Z,100086.97
2022-09-16T10:30:28.855Z,100083.25
2022-09-16T10:32:56.669Z,100080.38
2022-09-16T10:35:31.842Z,100074.66
2022-09-16T10:38:04.359Z,100070.88
2022-09-16T10:40:31.411Z,100067.06
2022-09-16T10:43:07.040Z,100067.63
2022-09-16T10:45:37.749Z,100061.06
2022-09-16T10:48:08.134Z,100065.34
2022-09-16T10:50:34.852Z,100058.88
2022-09-16T10:53:01.649Z,100051.59
2022-09-16T10:55:35.371Z,100049.75
2022-09-16T10:58:16.377Z,100069.34
2022-09-16T11:01:02.215Z,100081.44
2022-09-16T11:03:46.336Z,100060.22
2022-09-16T11:06:32.870Z,100070.91
2022-09-16T11:09:20.809Z,100060.63
2022-09-16T11:12:01.747Z,100073.31
2022-09-16T11:14:46.576Z,100065.94
2022-09-16T11:17:36.522Z,100071.00
2022-09-16T11:20:22.080Z,100056.53
2022-09-16T11:23:28.579Z,100058.84
2022-09-16T11:26:41.663Z,100054.81
2022-09-16T11:29:27.526Z,100053.19
2022-09-16T11:31:54.623Z,100032.75
2022-09-16T11:34:38.662Z,100045.34
2022-09-16T11:37:17.545Z,100035.56
2022-09-16T11:39:59.583Z,100038.09
2022-09-16T11:42:41.609Z,100030.78
2022-09-16T11:45:40.277Z,100041.41
2022-09-16T11:48:29.669Z,100032.22
2022-09-16T11:51:03.625Z,100022.13
2022-09-16T11:53:57.309Z,100029.94
2022-09-16T11:56:35.066Z,100028.78
2022-09-16T11:59:30.565Z,100031.22
2022-09-16T12:02:25.579Z,100013.88
2022-09-16T12:05:14.739Z,100023.34
2022-09-16T12:07:46.550Z,100019.66
2022-09-16T12:10:15.646Z,100030.34
2022-09-16T12:12:52.347Z,100019.72
2022-09-16T12:18:09.752Z,100024.06
2022-09-16T12:20:43.925Z,100015.84
2022-09-16T12:23:32.041Z,99995.06
2022-09-16T12:26:14.411Z,100006.13
2022-09-16T12:28:46.817Z,100002.91
2022-09-16T12:31:40.225Z,99985.34
2022-09-16T12:34:13.472Z,99982.78
2022-09-16T12:36:43.131Z,99992.81
2022-09-16T12:39:12.062Z,99997.38
2022-09-16T12:42:03.508Z,99989.41
2022-09-16T12:44:43.781Z,99996.97
2022-09-16T12:47:25.997Z,100024.47
2022-09-16T12:50:21.390Z,100026.28
2022-09-16T12:53:35.608Z,100041.78
2022-09-16T12:56:33.931Z,100043.00
2022-09-16T12:59:15.473Z,100050.25
2022-09-16T13:01:45.596Z,100044.97
2022-09-16T13:04:21.976Z,100032.50
2022-09-16T13:06:53.552Z,100030.63
2022-09-16T13:09:25.851Z,100035.84
2022-09-16T13:14:50.655Z,100031.41
2022-09-16T13:17:28.218Z,100024.22
2022-09-16T13:19:55.791Z,100010.84
2022-09-16T13:22:40.631Z,100014.53
2022-09-16T13:25:20.171Z,100009.16
2022-09-16T13:28:01.667Z,100012.78
2022-09-16T13:30:38.214Z,100008.28
2022-09-16T13:33:28.171Z,100018.00
2022-09-16T13:36:16.038Z,100005.22
2022-09-16T13:38:49.800Z,99993.31
2022-09-16T13:41:37.109Z,100004.44
2022-09-16T13:44:26.505Z,99995.91
2022-09-16T13:46:53.466Z,99982.16
2022-09-16T13:49:25.527Z,99999.88
2022-09-16T13:51:52.496Z,100004.09
2022-09-16T13:54:25.315Z,99995.75
2022-09-16T13:57:12.046Z,99995.44
2022-09-16T13:59:45.956Z,99984.41
2022-09-16T14:02:56.604Z,99987.75
2022-09-16T14:05:47.716Z,99994.78
2022-09-16T14:08:22.937Z,99983.09
2022-09-16T14:11:01.919Z,99997.94
2022-09-16T14:13:37.438Z,99985.13
2022-09-16T14:16:05.552Z,99973.22
2022-09-16T14:18:33.941Z,99972.00
2022-09-16T14:21:06.671Z,99967.06
2022-09-16T14:23:33.842Z,99967.63
2022-09-16T14:26:14.740Z,99953.06
2022-09-16T14:28:41.594Z,99952.03
2022-09-16T14:31:22.278Z,99952.91
2022-09-16T14:33:58.815Z,99958.28
2022-09-16T14:36:26.260Z,99954.03
2022-09-16T14:39:04.603Z,99948.88
2022-09-16T14:41:38.714Z,99956.31
2022-09-16T14:44:17.274Z,99961.91
2022-09-16T14:46:46.733Z,99952.19
2022-09-16T14:49:14.632Z,99948.69
2022-09-16T14:51:50.791Z,99947.06
2022-09-16T14:54:22.300Z,99948.00
2022-09-16T14:57:00.443Z,99948.06
2022-09-16T14:59:48.179Z,99940.97
2022-09-16T15:02:28.527Z,99939.94
2022-09-16T15:04:59.623Z,99940.81
2022-09-16T15:07:30.209Z,99923.63
2022-09-16T15:10:07.806Z,99937.88
2022-09-16T15:12:38.223Z,99927.06
2022-09-16T15:15:10.413Z,99935.13
2022-09-16T15:17:37.124Z,99930.63
2022-09-16T15:20:03.856Z,99929.75
2022-09-16T15:22:30.532Z,99928.88
2022-09-16T15:24:59.318Z,99921.75
2022-09-16T15:27:31.631Z,99929.75
2022-09-16T15:30:00.765Z,99923.50
2022-09-16T15:32:31.485Z,99925.38
2022-09-16T15:35:22.133Z,99923.81
2022-09-16T15:37:49.584Z,99924.97
2022-09-16T15:40:23.715Z,99924.38
2022-09-16T15:43:16.384Z,99928.19
2022-09-16T15:45:44.569Z,99927.53
2022-09-16T15:48:13.508Z,99923.28
2022-09-16T15:51:03.638Z,99921.91
2022-09-16T15:53:30.270Z,99915.03
2022-09-16T15:56:05.954Z,99926.06
2022-09-16T15:58:32.597Z,99911.97
2022-09-16T16:01:00.766Z,99909.56
2022-09-16T16:03:49.921Z,99904.25
2022-09-16T16:06:16.624Z,99904.47
2022-09-16T16:08:48.901Z,99910.84
2022-09-16T16:11:20.117Z,99916.38
2022-09-16T16:13:47.349Z,99913.03
2022-09-16T16:16:15.152Z,99911.44
2022-09-16T16:18:42.867Z,99922.75
2022-09-16T16:21:12.138Z,99929.63
2022-09-16T16:23:39.123Z,99925.88
2022-09-16T16:26:07.749Z,99915.88
2022-09-16T16:28:34.871Z,99915.34
2022-09-16T16:31:16.307Z,99918.44
2022-09-16T16:33:47.821Z,99916.09
2022-09-16T16:36:16.601Z,99913.75
2022-09-16T16:38:45.455Z,99906.94
2022-09-16T16:41:13.465Z,99909.91
2022-09-16T16:43:40.530Z,99905.59
2022-09-16T16:46:07.356Z,99912.03
2022-09-16T16:48:34.277Z,99914.03
2022-09-16T16:51:08.032Z,99914.31
2022-09-16T16:53:35.133Z,99921.00
2022-09-16T16:56:14.851Z,99923.03
2022-09-16T16:58:45.175Z,99918.06
2022-09-16T17:01:14.060Z,99925.44
2022-09-16T17:03:41.200Z,99930.13
2022-09-16T17:06:08.428Z,99926.88
2022-09-16T17:08:35.644Z,99946.84
2022-09-16T17:11:06.979Z,99952.50
2022-09-16T17:13:34.272Z,99951.06
2022-09-16T17:16:01.282Z,99954.03
2022-09-16T17:18:28.180Z,99950.88
2022-09-16T17:21:02.118Z,99946.91
2022-09-16T17:23:28.916Z,99939.25
2022-09-16T17:25:55.739Z,99941.47
2022-09-16T17:28:22.494Z,99943.56
2022-09-16T17:30:49.700Z,99947.50
2022-09-16T17:33:16.546Z,99948.63
2022-09-16T17:35:43.308Z,99951.53
2022-09-16T17:38:10.529Z,99948.09
2022-09-16T17:40:37.493Z,99952.75
2022-09-16T17:43:04.421Z,99947.59
2022-09-16T17:45:34.215Z,99949.63
2022-09-16T17:48:01.654Z,99968.50
2022-09-16T17:50:28.648Z,99954.41
2022-09-16T17:52:55.549Z,99947.41
2022-09-16T17:55:22.347Z,99942.22
2022-09-16T17:57:49.093Z,99938.72
2022-09-16T18:00:16.206Z,99943.19
2022-09-16T18:02:43.073Z,99939.75
2022-09-16T18:05:09.930Z,99956.66
2022-09-16T18:07:36.821Z,99955.88
2022-09-16T18:10:04.069Z,99954.16
2022-09-16T18:12:30.914Z,99951.56
2022-09-16T18:14:58.384Z,99962.25
2022-09-16T18:17:25.227Z,99953.41
2022-09-16T18:19:51.946Z,99964.97
2022-09-16T18:22:19.709Z,99966.72
2022-09-16T18:24:46.797Z,99971.19
2022-09-16T18:27:13.796Z,99963.22
2022-09-16T18:29:40.746Z,99965.00
2022-09-16T18:32:07.985Z,99966.78
2022-09-16T18:34:34.804Z,99971.25
2022-09-16T18:37:01.541Z,99962.44
2022-09-16T18:39:28.372Z,99955.34
2022-09-16T18:41:56.168Z,99948.38
2022-09-16T18:44:25.774Z,99953.75
2022-09-16T18:46:53.216Z,99957.38
2022-09-16T18:49:22.064Z,99964.50
2022-09-16T18:51:52.005Z,99972.56
2022-09-16T18:54:27.842Z,99965.47
2022-09-16T18:56:59.752Z,99964.69
2022-09-16T18:59:34.160Z,99961.22
2022-09-16T19:02:03.377Z,99964.81
2022-09-16T19:04:32.391Z,99957.72
2022-09-16T19:07:05.940Z,99959.53
2022-09-16T19:09:34.713Z,99972.09
2022-09-16T19:12:01.461Z,99972.09
2022-09-16T19:14:28.499Z,99966.78
2022-09-16T19:16:55.288Z,99973.88
2022-09-16T19:19:22.500Z,99977.41
2022-09-16T19:21:49.388Z,99970.22
2022-09-16T19:24:18.307Z,99966.72
2022-09-16T19:26:46.066Z,99973.75
2022-09-16T19:29:14.774Z,99981.72
2022-09-16T19:31:42.778Z,99973.72
2022-09-16T19:34:09.525Z,99977.22
2022-09-16T19:36:37.172Z,99973.63
2022-09-16T19:39:04.898Z,99978.06
2022-09-16T19:41:33.023Z,99977.22
2022-09-16T19:44:02.234Z,99976.28
2022-09-16T19:46:31.758Z,99970.88
2022-09-16T19:48:58.980Z,99968.19
2022-09-16T19:51:26.069Z,99969.91
2022-09-16T19:53:53.829Z,99976.09
2022-09-16T19:56:26.053Z,99975.13
2022-09-16T19:58:53.684Z,99973.31
2022-09-16T20:01:22.447Z,99978.56
2022-09-16T20:03:49.389Z,99981.13
2022-09-16T20:06:24.551Z,99981.94
2022-09-16T20:08:59.754Z,99982.81
2022-09-16T20:11:31.455Z,99980.09
2022-09-16T20:14:00.808Z,99988.97
2022-09-16T20:16:38.639Z,99996.03
2022-09-16T20:19:08.450Z,99996.84
2022-09-16T20:21:35.709Z,99998.59
2022-09-16T20:24:05.715Z,100000.41
2022-09-16T20:26:34.075Z,99996.75
2022-09-16T20:29:01.607Z,99996.69
2022-09-16T20:31:33.567Z,100002.03
2022-09-16T20:34:00.614Z,100005.59
2022-09-16T20:36:30.468Z,99998.47
2022-09-16T20:38:59.509Z,100008.16
2022-09-16T20:41:29.315Z,100000.19
2022-09-16T20:43:56.666Z,100015.28
2022-09-16T20:46:25.430Z,100021.47
2022-09-16T20:48:54.507Z,100011.69
2022-09-16T20:51:23.230Z,100009.03
2022-09-16T20:53:58.019Z,100013.38
2022-09-16T20:56:25.688Z,100019.66
2022-09-16T20:58:52.837Z,100021.50
2022-09-16T21:01:24.699Z,100019.72
2022-09-16T21:03:53.610Z,100022.34
2022-09-16T21:06:20.834Z,100024.94
2022-09-16T21:08:47.699Z,100030.28
2022-09-16T21:11:19.042Z,100025.81
2022-09-16T21:13:51.399Z,100024.03
2022-09-16T21:16:18.190Z,100017.81
2022-09-16T21:18:44.930Z,100020.47
2022-09-16T21:21:12.639Z,100022.22
2022-09-16T21:23:39.789Z,100027.56
2022-09-16T21:26:18.113Z,100026.72
2022-09-16T21:28:45.913Z,100029.41
2022-09-16T21:31:14.517Z,100026.72
2022-09-16T21:33:42.863Z,100040.00
2022-09-16T21:36:11.370Z,100040.06
2022-09-16T21:38:38.641Z,100034.66
2022-09-16T21:41:07.888Z,100040.00
2022-09-16T21:43:39.145Z,100042.69
2022-09-16T21:46:06.500Z,100039.16
2022-09-16T21:48:33.278Z,100044.75
2022-09-16T21:51:08.141Z,100043.16
2022-09-16T21:53:37.252Z,100046.03
2022-09-16T21:56:05.963Z,100040.78
2022-09-16T21:58:33.400Z,100048.06
2022-09-16T22:01:11.493Z,100047.31
2022-09-16T22:03:42.322Z,100041.19
2022-09-16T22:06:11.203Z,100047.47
2022-09-16T22:08:38.257Z,100054.66
2022-09-16T22:11:09.420Z,100048.47
2022-09-16T22:13:36.603Z,100052.03
2022-09-16T22:16:04.435Z,100048.56
2022-09-16T22:18:31.271Z,100053.91
2022-09-16T22:21:10.215Z,100052.13
2022-09-16T22:23:38.291Z,100045.94
2022-09-16T22:26:11.203Z,100053.97
2022-09-16T22:28:38.631Z,100055.84
2022-09-16T22:31:17.177Z,100055.84
2022-09-16T22:33:45.831Z,100054.13
2022-09-16T22:36:17.651Z,100053.31
2022-09-16T22:38:48.485Z,100049.75
2022-09-16T22:41:16.451Z,100055.06
2022-09-16T22:43:46.823Z,100054.19
2022-09-16T22:46:15.652Z,100051.53
2022-09-16T22:48:43.703Z,100048.00
2022-09-16T22:51:11.454Z,100047.25
2022-09-16T22:53:38.212Z,100042.03
2022-09-16T22:56:07.361Z,100059.03
2022-09-16T22:58:34.487Z,100043.97
2022-09-16T23:01:13.379Z,100055.56
2022-09-16T23:03:40.814Z,100044.06
2022-09-16T23:06:11.168Z,100048.53
2022-09-16T23:08:39.551Z,100037.91
2022-09-16T23:11:08.430Z,100049.34
2022-09-16T23:13:36.182Z,100054.63
2022-09-16T23:16:06.698Z,100058.16
2022-09-16T23:18:34.735Z,100047.41
2022-09-16T23:21:03.787Z,100048.22
2022-09-16T23:23:31.850Z,100049.06
2022-09-16T23:26:02.514Z,100049.91
2022-09-16T23:28:29.429Z,100045.44
2022-09-16T23:30:56.385Z,100054.38
2022-09-16T23:33:26.071Z,100052.63
2022-09-16T23:35:52.820Z,100064.22
2022-09-16T23:38:19.873Z,100057.94
2022-09-16T23:40:46.621Z,100049.94
2022-09-16T23:43:13.401Z,100061.47
2022-09-16T23:45:40.735Z,100054.41
2022-09-16T23:48:08.127Z,100052.72
2022-09-16T23:50:35.003Z,100051.88
2022-09-16T23:53:01.745Z,100057.31
2022-09-16T23:55:28.527Z,100051.16
2022-09-16T23:57:55.388Z,100055.63
